createdAt,value
2022-12-27T00:00:45.737Z,6.3
2022-12-27T00:03:16.587Z,5.8
2022-12-27T00:05:47.387Z,5.8
2022-12-27T00:08:18.205Z,9.1
2022-12-27T00:10:49.011Z,9.7
2022-12-27T00:13:29.774Z,10.0
2022-12-27T00:16:00.572Z,8.0
2022-12-27T00:18:31.363Z,8.6
2022-12-27T00:21:02.107Z,6.3
2022-12-27T00:23:32.900Z,8.8
2022-12-27T00:26:13.658Z,4.1
2022-12-27T00:28:44.430Z,5.2
2022-12-27T00:31:15.234Z,6.6
2022-12-27T00:36:16.161Z,6.6
2022-12-27T00:38:46.938Z,5.5
2022-12-27T00:41:27.763Z,5.2
2022-12-27T00:43:58.516Z,5.0
2022-12-27T00:46:29.378Z,4.1
2022-12-27T00:49:00.154Z,4.7
2022-12-27T00:51:30.985Z,3.0
2022-12-27T00:54:01.772Z,3.8
2022-12-27T00:56:42.542Z,4.1
2022-12-27T00:59:13.295Z,4.7
2022-12-27T01:01:44.627Z,14.7
2022-12-27T01:04:15.515Z,5.2
2022-12-27T01:06:46.398Z,5.2
2022-12-27T01:09:17.214Z,2.7
2022-12-27T01:11:58.033Z,5.0
2022-12-27T01:16:59.176Z,5.2
2022-12-27T01:19:29.957Z,3.6
2022-12-27T01:22:00.726Z,2.7
2022-12-27T01:24:41.486Z,2.7
2022-12-27T01:27:12.248Z,4.4
2022-12-27T01:29:42.993Z,3.0
2022-12-27T01:32:14.194Z,2.5
2022-12-27T01:34:44.972Z,4.7
2022-12-27T01:37:15.806Z,5.2
2022-12-27T01:42:26.761Z,4.7
2022-12-27T01:44:57.514Z,3.3
2022-12-27T01:47:28.297Z,17.2
2022-12-27T01:49:59.069Z,5.2
2022-12-27T01:52:32.202Z,3.8
2022-12-27T01:57:45.796Z,7.5
2022-12-27T02:00:16.552Z,8.0
2022-12-27T02:02:47.717Z,5.0
2022-12-27T02:05:18.547Z,5.8
2022-12-27T02:07:49.313Z,3.6
2022-12-27T02:10:30.091Z,3.8
2022-12-27T02:13:00.904Z,5.5
2022-12-27T02:15:31.707Z,5.0
2022-12-27T02:18:02.489Z,5.2
2022-12-27T02:20:33.278Z,5.5
2022-12-27T02:23:04.035Z,6.6
2022-12-27T02:25:44.997Z,20.5
2022-12-27T02:28:15.990Z,7.2
2022-12-27T02:30:46.857Z,23.3
2022-12-27T02:33:17.668Z,5.5
2022-12-27T02:38:28.603Z,5.5
2022-12-27T02:40:59.361Z,6.1
2022-12-27T02:43:30.090Z,4.7
2022-12-27T02:46:00.983Z,7.5
2022-12-27T02:48:31.811Z,6.1
2022-12-27T02:51:02.597Z,4.4
2022-12-27T02:53:43.352Z,5.0
2022-12-27T02:56:14.202Z,6.3
2022-12-27T02:58:45.005Z,3.8
2022-12-27T03:01:15.912Z,4.1
2022-12-27T03:03:52.837Z,21.3
2022-12-27T03:08:53.789Z,4.7
2022-12-27T03:11:24.595Z,4.7
2022-12-27T03:13:55.377Z,3.0
2022-12-27T03:18:56.285Z,4.7
2022-12-27T03:21:27.036Z,3.8
2022-12-27T03:24:07.799Z,3.0
2022-12-27T03:26:38.611Z,3.8
2022-12-27T03:29:09.403Z,3.3
2022-12-27T03:31:40.277Z,3.8
2022-12-27T03:34:11.035Z,3.6
2022-12-27T03:36:51.794Z,2.5
2022-12-27T03:39:22.537Z,2.5
2022-12-27T03:41:53.329Z,3.3
2022-12-27T03:44:24.149Z,4.1
2022-12-27T03:46:55.178Z,1.3
2022-12-27T03:49:25.974Z,3.8
2022-12-27T03:52:06.824Z,3.6
2022-12-27T03:54:37.667Z,2.5
2022-12-27T03:59:38.612Z,0.8
2022-12-27T04:02:09.773Z,2.2
2022-12-27T04:04:40.668Z,2.2
2022-12-27T04:07:21.459Z,1.9
2022-12-27T04:09:52.309Z,0.5
2022-12-27T04:12:23.118Z,0.2
2022-12-27T04:14:53.895Z,0.0
2022-12-27T04:17:24.696Z,0.0
2022-12-27T04:19:55.453Z,0.0
2022-12-27T04:22:36.222Z,0.0
2022-12-27T04:25:07.077Z,0.0
2022-12-27T04:27:37.849Z,0.8
2022-12-27T04:30:08.634Z,0.5
2022-12-27T04:35:19.567Z,0.8
2022-12-27T04:40:20.597Z,0.2
2022-12-27T04:42:51.345Z,0.2
2022-12-27T04:45:25.800Z,1.3
2022-12-27T04:47:56.530Z,0.8
2022-12-27T04:50:37.331Z,0.2
2022-12-27T04:53:08.074Z,0.2
2022-12-27T04:55:38.906Z,0.8
2022-12-27T04:58:09.703Z,0.0
2022-12-27T05:00:40.501Z,0.0
2022-12-27T05:03:11.811Z,0.0
2022-12-27T05:05:52.666Z,0.0
2022-12-27T05:08:23.442Z,0.0
2022-12-27T05:10:54.224Z,0.0
2022-12-27T05:13:24.980Z,0.0
2022-12-27T05:15:55.897Z,0.0
2022-12-27T05:21:06.867Z,0.0
2022-12-27T05:23:37.619Z,0.0
2022-12-27T05:26:08.415Z,0.0
2022-12-27T05:28:39.171Z,0.0
2022-12-27T05:31:10.081Z,0.0
2022-12-27T05:33:40.904Z,0.0
2022-12-27T05:36:21.661Z,0.0
2022-12-27T05:38:52.433Z,0.0
2022-12-27T05:41:23.346Z,0.0
2022-12-27T05:43:54.092Z,2.5
2022-12-27T05:46:25.029Z,0.5
2022-12-27T05:49:05.824Z,1.9
2022-12-27T05:51:36.601Z,0.8
2022-12-27T05:54:07.370Z,2.7
2022-12-27T05:56:38.157Z,3.6
2022-12-27T06:01:39.349Z,3.3
2022-12-27T06:04:20.155Z,3.3
2022-12-27T06:06:50.905Z,3.6
2022-12-27T06:09:21.665Z,4.1
2022-12-27T06:11:52.480Z,3.6
2022-12-27T06:14:23.246Z,4.1
2022-12-27T06:16:54.147Z,3.6
2022-12-27T06:19:34.949Z,2.7
2022-12-27T06:22:05.741Z,2.5
2022-12-27T06:24:36.475Z,1.9
2022-12-27T06:27:07.293Z,1.1
2022-12-27T06:29:38.093Z,0.5
2022-12-27T06:32:08.967Z,0.5
2022-12-27T06:34:49.757Z,0.2
2022-12-27T06:37:20.655Z,1.1
2022-12-27T06:42:21.583Z,2.2
2022-12-27T06:44:52.354Z,2.2
2022-12-27T06:47:33.245Z,3.3
2022-12-27T06:50:04.001Z,1.9
2022-12-27T06:52:34.744Z,1.9
2022-12-27T06:55:05.568Z,0.0
2022-12-27T06:57:36.335Z,0.8
2022-12-27T07:00:14.139Z,0.5
2022-12-27T07:02:45.177Z,0.0
2022-12-27T07:05:15.946Z,0.2
2022-12-27T07:07:46.721Z,0.5
2022-12-27T07:10:17.499Z,0.2
2022-12-27T07:12:52.223Z,0.2
2022-12-27T07:15:23.078Z,1.1
2022-12-27T07:18:03.877Z,0.0
2022-12-27T07:23:04.908Z,0.0
2022-12-27T07:25:35.755Z,0.2
2022-12-27T07:28:06.550Z,0.8
2022-12-27T07:30:37.336Z,0.5
2022-12-27T07:33:18.104Z,0.2
2022-12-27T07:35:55.059Z,0.0
2022-12-27T07:38:15.837Z,0.0
2022-12-27T07:40:46.692Z,0.0
2022-12-27T07:43:17.424Z,0.0
2022-12-27T07:45:48.339Z,0.0
2022-12-27T07:48:29.263Z,0.2
2022-12-27T07:51:00.025Z,0.2
2022-12-27T07:53:30.787Z,0.5
2022-12-27T07:56:01.532Z,0.0
2022-12-27T07:58:32.308Z,0.0
2022-12-27T08:03:43.360Z,0.0
2022-12-27T08:06:14.144Z,0.0
2022-12-27T08:08:44.893Z,0.8
2022-12-27T08:11:18.672Z,0.0
2022-12-27T08:13:49.784Z,0.8
2022-12-27T08:16:30.677Z,0.2
2022-12-27T08:19:06.501Z,6.3
2022-12-27T08:21:28.935Z,1.3
2022-12-27T08:23:59.738Z,5.0
2022-12-27T08:26:30.618Z,0.8
2022-12-27T08:29:01.397Z,0.0
2022-12-27T08:31:42.188Z,0.5
2022-12-27T08:34:18.871Z,0.0
2022-12-27T08:37:16.355Z,0.8
2022-12-27T08:39:17.116Z,0.0
2022-12-27T08:44:18.060Z,0.0
2022-12-27T08:46:58.860Z,0.0
2022-12-27T08:49:29.610Z,0.0
2022-12-27T08:52:02.007Z,0.0
2022-12-27T08:54:32.784Z,0.0
2022-12-27T08:57:03.568Z,1.1
2022-12-27T08:59:34.316Z,0.8
2022-12-27T09:02:15.490Z,1.1
2022-12-27T09:04:46.280Z,1.1
2022-12-27T09:07:17.087Z,1.9
2022-12-27T09:09:47.844Z,1.6
2022-12-27T09:12:19.758Z,1.6
2022-12-27T09:15:00.483Z,0.2
2022-12-27T09:17:31.243Z,0.0
2022-12-27T09:20:02.006Z,0.8
2022-12-27T09:25:02.985Z,0.2
2022-12-27T09:27:33.827Z,0.5
2022-12-27T09:30:14.613Z,0.0
2022-12-27T09:32:45.362Z,0.8
2022-12-27T09:35:16.181Z,0.8
2022-12-27T09:37:46.922Z,0.8
2022-12-27T09:40:17.741Z,1.6
2022-12-27T09:43:30.823Z,2.5
2022-12-27T09:48:01.713Z,1.3
2022-12-27T09:50:32.519Z,1.1
2022-12-27T09:53:03.307Z,2.5
2022-12-27T09:55:34.117Z,1.6
2022-12-27T09:58:04.875Z,1.6
2022-12-27T10:00:56.788Z,1.6
2022-12-27T10:05:42.417Z,1.9
2022-12-27T10:08:13.223Z,1.3
2022-12-27T10:10:44.051Z,0.2
2022-12-27T10:13:14.804Z,0.8
2022-12-27T10:15:55.696Z,0.2
2022-12-27T10:18:26.472Z,1.1
2022-12-27T10:20:57.242Z,1.9
2022-12-27T10:23:27.994Z,0.8
2022-12-27T10:25:58.900Z,1.3
2022-12-27T10:28:40.181Z,0.8
2022-12-27T10:31:11.089Z,2.2
2022-12-27T10:33:41.878Z,1.9
2022-12-27T10:36:12.658Z,3.8
2022-12-27T10:38:43.493Z,2.7
2022-12-27T10:41:14.445Z,2.5
2022-12-27T10:46:29.067Z,1.9
2022-12-27T10:49:32.463Z,16.9
2022-12-27T10:51:23.178Z,3.3
2022-12-27T10:53:53.905Z,2.2
2022-12-27T10:56:24.817Z,3.0
2022-12-27T10:59:09.397Z,3.6
2022-12-27T11:01:40.630Z,4.4
2022-12-27T11:04:17.841Z,5.8
2022-12-27T11:06:40.528Z,4.4
2022-12-27T11:09:11.311Z,4.7
2022-12-27T11:11:42.085Z,4.4
2022-12-27T11:14:22.847Z,4.4
2022-12-27T11:16:53.788Z,3.0
2022-12-27T11:19:24.566Z,3.8
2022-12-27T11:21:55.324Z,3.8
2022-12-27T11:27:03.690Z,3.3
2022-12-27T11:29:34.737Z,2.7
2022-12-27T11:32:05.572Z,3.0
2022-12-27T11:34:36.333Z,4.1
2022-12-27T11:37:07.126Z,3.3
2022-12-27T11:39:37.969Z,5.5
2022-12-27T11:42:18.756Z,3.0
2022-12-27T11:44:49.507Z,3.6
2022-12-27T11:47:20.545Z,5.2
2022-12-27T11:49:51.288Z,5.2
2022-12-27T11:52:22.079Z,4.7
2022-12-27T11:54:52.836Z,3.3
2022-12-27T11:57:33.629Z,3.3
2022-12-27T12:00:04.399Z,4.7
2022-12-27T12:02:35.489Z,4.4
2022-12-27T12:07:36.390Z,4.1
2022-12-27T12:10:07.184Z,6.6
2022-12-27T12:12:47.950Z,21.1
2022-12-27T12:15:18.742Z,13.6
2022-12-27T12:17:56.108Z,5.2
2022-12-27T12:20:26.923Z,4.1
2022-12-27T12:22:57.691Z,5.2
2022-12-27T12:25:28.507Z,4.7
2022-12-27T12:28:23.268Z,5.5
2022-12-27T12:30:45.815Z,4.7
2022-12-27T12:33:06.547Z,3.8
2022-12-27T12:35:37.334Z,4.7
2022-12-27T12:40:48.259Z,4.7
2022-12-27T12:43:19.044Z,6.1
2022-12-27T12:48:19.969Z,4.7
2022-12-27T12:53:20.855Z,1.9
2022-12-27T12:56:01.639Z,4.1
2022-12-27T12:58:32.421Z,3.8
2022-12-27T13:01:03.279Z,17.5
2022-12-27T13:03:34.237Z,20.5
2022-12-27T13:06:05.073Z,4.7
2022-12-27T13:08:35.825Z,4.4
2022-12-27T13:11:16.637Z,4.7
2022-12-27T13:13:47.387Z,4.7
2022-12-27T13:16:18.222Z,5.8
2022-12-27T13:18:51.244Z,6.6
2022-12-27T13:21:21.994Z,4.4
2022-12-27T13:23:52.740Z,5.0
2022-12-27T13:29:03.686Z,6.1
2022-12-27T13:31:34.569Z,3.8
2022-12-27T13:34:05.320Z,3.8
2022-12-27T13:36:36.105Z,5.2
2022-12-27T13:39:16.874Z,5.5
2022-12-27T13:41:51.379Z,5.2
2022-12-27T13:44:22.145Z,23.6
2022-12-27T13:47:00.686Z,5.5
2022-12-27T13:49:21.433Z,4.7
2022-12-27T13:51:52.177Z,3.3
2022-12-27T13:54:32.964Z,4.1
2022-12-27T13:57:14.960Z,3.8
2022-12-27T13:59:35.732Z,2.7
2022-12-27T14:02:06.720Z,2.7
2022-12-27T14:04:37.559Z,3.8
2022-12-27T14:09:48.467Z,4.1
2022-12-27T14:12:19.235Z,3.8
2022-12-27T14:14:50.007Z,3.0
2022-12-27T14:17:20.752Z,15.0
2022-12-27T14:19:51.510Z,3.3
2022-12-27T14:22:22.287Z,3.3
2022-12-27T14:25:03.033Z,2.5
2022-12-27T14:27:33.793Z,2.2
2022-12-27T14:30:04.543Z,2.5
2022-12-27T14:32:35.326Z,3.0
2022-12-27T14:35:09.843Z,1.9
2022-12-27T14:37:30.602Z,1.9
2022-12-27T14:40:11.392Z,2.5
2022-12-27T14:42:42.170Z,2.2
2022-12-27T14:45:12.936Z,1.9
2022-12-27T14:50:23.912Z,2.5
2022-12-27T14:53:04.733Z,1.9
2022-12-27T14:55:35.566Z,3.3
2022-12-27T14:58:06.374Z,0.8
2022-12-27T15:00:37.128Z,0.2
2022-12-27T15:03:08.430Z,0.0
2022-12-27T15:05:29.300Z,0.2
2022-12-27T15:08:10.190Z,0.5
2022-12-27T15:10:43.949Z,0.5
2022-12-27T15:13:14.739Z,0.0
2022-12-27T15:15:45.572Z,0.2
2022-12-27T15:18:16.370Z,0.0
2022-12-27T15:20:47.145Z,0.2
2022-12-27T15:23:27.904Z,0.0
2022-12-27T15:25:58.658Z,0.0
2022-12-27T15:30:59.663Z,0.0
2022-12-27T15:33:30.449Z,0.0
2022-12-27T15:36:01.174Z,0.0
2022-12-27T15:38:41.938Z,0.0
2022-12-27T15:41:12.709Z,0.0
2022-12-27T15:43:43.491Z,0.0
2022-12-27T15:46:14.339Z,0.0
2022-12-27T15:48:49.972Z,0.0
2022-12-27T15:51:22.408Z,0.0
2022-12-27T15:54:03.176Z,0.0
2022-12-27T15:56:33.945Z,0.0
2022-12-27T15:59:04.745Z,0.0
2022-12-27T16:01:41.146Z,0.0
2022-12-27T16:04:02.093Z,0.0
2022-12-27T16:06:32.870Z,0.0
2022-12-27T16:11:43.754Z,0.0
2022-12-27T16:14:14.519Z,0.0
2022-12-27T16:16:45.442Z,0.0
2022-12-27T16:19:16.214Z,0.0
2022-12-27T16:21:57.053Z,0.0
2022-12-27T16:24:27.824Z,0.0
2022-12-27T16:26:58.643Z,0.0
2022-12-27T16:29:29.392Z,0.0
2022-12-27T16:32:06.052Z,0.0
2022-12-27T16:34:26.810Z,0.0
2022-12-27T16:37:07.582Z,0.0
2022-12-27T16:39:38.317Z,0.0
2022-12-27T16:42:09.103Z,0.0
2022-12-27T16:44:44.757Z,0.0
2022-12-27T16:47:15.641Z,0.0
2022-12-27T16:52:26.530Z,0.0
2022-12-27T16:54:57.326Z,0.0
2022-12-27T16:57:30.167Z,0.0
2022-12-27T17:00:00.935Z,0.0
2022-12-27T17:02:32.041Z,0.0
2022-12-27T17:05:02.815Z,0.0
2022-12-27T17:07:43.601Z,0.5
2022-12-27T17:10:14.379Z,1.1
2022-12-27T17:12:45.172Z,0.8
2022-12-27T17:15:15.946Z,0.5
2022-12-27T17:17:46.710Z,1.1
2022-12-27T17:20:17.544Z,1.3
2022-12-27T17:22:58.304Z,0.0
2022-12-27T17:25:29.079Z,0.0
2022-12-27T17:27:59.952Z,0.0
2022-12-27T17:33:00.818Z,0.0
2022-12-27T17:35:38.719Z,0.2
2022-12-27T17:38:09.507Z,0.0
2022-12-27T17:40:40.892Z,0.0
2022-12-27T17:43:11.674Z,0.0
2022-12-27T17:45:42.478Z,0.0
2022-12-27T17:48:13.546Z,0.5
2022-12-27T17:50:54.312Z,0.2
2022-12-27T17:53:26.440Z,0.0
2022-12-27T17:55:57.239Z,0.0
2022-12-27T17:58:27.981Z,0.0
2022-12-27T18:00:59.097Z,0.0
2022-12-27T18:03:29.966Z,0.0
2022-12-27T18:06:10.739Z,0.0
2022-12-27T18:08:41.531Z,0.0
2022-12-27T18:13:42.434Z,0.0
2022-12-27T18:16:13.454Z,0.0
2022-12-27T18:18:44.796Z,0.0
2022-12-27T18:21:25.629Z,0.0
2022-12-27T18:23:56.373Z,0.0
2022-12-27T18:26:33.218Z,0.0
2022-12-27T18:28:54.729Z,0.0
2022-12-27T18:31:25.667Z,0.0
2022-12-27T18:33:56.490Z,0.0
2022-12-27T18:36:37.287Z,0.0
2022-12-27T18:39:08.060Z,0.0
2022-12-27T18:41:38.855Z,0.0
2022-12-27T18:44:09.604Z,0.2
2022-12-27T18:46:40.476Z,0.5
2022-12-27T18:54:21.525Z,0.2
2022-12-27T18:56:52.306Z,0.0
2022-12-27T18:59:23.080Z,0.0
2022-12-27T19:01:54.337Z,0.0
2022-12-27T19:04:35.336Z,0.0
2022-12-27T19:07:06.150Z,0.0
2022-12-27T19:09:36.936Z,0.0
2022-12-27T19:12:07.721Z,0.0
2022-12-27T19:14:38.480Z,0.0
2022-12-27T19:17:11.362Z,0.0
2022-12-27T19:19:52.261Z,0.0
2022-12-27T19:22:23.033Z,0.0
2022-12-27T19:24:53.776Z,0.0
2022-12-27T19:27:24.537Z,0.0
2022-12-27T19:30:02.970Z,0.0
2022-12-27T19:35:03.885Z,0.0
2022-12-27T19:37:34.671Z,0.0
2022-12-27T19:40:05.472Z,0.0
2022-12-27T19:42:36.238Z,0.0
2022-12-27T19:45:07.089Z,0.0
2022-12-27T19:47:37.852Z,0.0
2022-12-27T19:50:18.657Z,0.0
2022-12-27T19:52:49.444Z,0.0
2022-12-27T19:55:20.279Z,0.0
2022-12-27T19:57:51.800Z,0.0
2022-12-27T20:00:28.942Z,0.0
2022-12-27T20:03:10.220Z,0.0
2022-12-27T20:06:38.604Z,0.0
2022-12-27T20:08:09.522Z,0.0
2022-12-27T20:10:40.314Z,0.0
2022-12-27T20:15:41.207Z,0.0
2022-12-27T20:18:21.961Z,0.0
2022-12-27T20:20:52.732Z,0.0
2022-12-27T20:23:23.500Z,0.0
2022-12-27T20:25:54.278Z,0.0
2022-12-27T20:28:25.025Z,0.0
2022-12-27T20:30:55.796Z,0.0
2022-12-27T20:33:36.597Z,0.0
2022-12-27T20:36:07.382Z,0.0
2022-12-27T20:38:38.130Z,0.0
2022-12-27T20:41:08.903Z,0.0
2022-12-27T20:43:39.669Z,0.0
2022-12-27T20:46:10.503Z,0.0
2022-12-27T20:48:51.295Z,0.0
2022-12-27T20:51:22.061Z,0.0
2022-12-27T20:56:22.946Z,0.0
2022-12-27T20:58:53.771Z,0.0
2022-12-27T21:01:35.119Z,0.0
2022-12-27T21:04:07.441Z,0.0
2022-12-27T21:06:38.249Z,0.0
2022-12-27T21:09:16.423Z,0.0
2022-12-27T21:11:37.449Z,0.0
2022-12-27T21:14:08.307Z,0.0
2022-12-27T21:16:49.271Z,0.0
2022-12-27T21:19:20.068Z,0.0
2022-12-27T21:21:50.811Z,0.0
2022-12-27T21:24:21.615Z,0.0
2022-12-27T21:26:56.344Z,0.0
2022-12-27T21:29:17.306Z,0.0
2022-12-27T21:31:58.079Z,0.0
2022-12-27T21:37:13.197Z,0.0
2022-12-27T21:39:34.294Z,0.0
2022-12-27T21:42:05.056Z,0.0
2022-12-27T21:44:35.823Z,0.0
2022-12-27T21:47:16.576Z,0.0
2022-12-27T21:49:47.362Z,0.0
2022-12-27T21:52:18.140Z,0.0
2022-12-27T21:54:48.899Z,0.0
2022-12-27T21:57:19.671Z,0.0
2022-12-27T21:59:50.436Z,0.0
2022-12-27T22:02:31.705Z,0.0
2022-12-27T22:05:02.534Z,0.0
2022-12-27T22:07:33.281Z,0.0
2022-12-27T22:10:04.126Z,0.0
2022-12-27T22:12:34.880Z,0.0
2022-12-27T22:17:45.793Z,0.0
2022-12-27T22:20:16.812Z,0.0
2022-12-27T22:22:47.589Z,0.0
2022-12-27T22:25:18.329Z,0.0
2022-12-27T22:27:49.051Z,0.0
2022-12-27T22:30:29.856Z,0.0
2022-12-27T22:33:00.591Z,0.0
2022-12-27T22:35:31.390Z,0.0
2022-12-27T22:38:02.154Z,0.0
2022-12-27T22:40:57.389Z,0.0
2022-12-27T22:43:08.479Z,0.0
2022-12-27T22:45:53.714Z,0.0
2022-12-27T22:48:14.773Z,0.0
2022-12-27T22:50:45.599Z,0.0
2022-12-27T22:53:16.330Z,0.0
2022-12-27T22:58:17.246Z,0.0
2022-12-27T23:00:58.002Z,0.0
2022-12-27T23:03:28.794Z,0.0
2022-12-27T23:05:59.563Z,0.0
2022-12-27T23:08:30.329Z,0.0
2022-12-27T23:11:01.110Z,0.0
2022-12-27T23:13:41.913Z,0.0
2022-12-27T23:16:12.970Z,0.0
2022-12-27T23:18:43.787Z,0.0
2022-12-27T23:21:43.632Z,0.0
2022-12-27T23:23:44.388Z,0.0
2022-12-27T23:26:17.071Z,0.0
2022-12-27T23:28:57.828Z,0.0
2022-12-27T23:31:28.783Z,0.0
2022-12-27T23:33:59.569Z,0.0
2022-12-27T23:39:00.462Z,0.0
2022-12-27T23:41:31.198Z,0.0
2022-12-27T23:44:14.408Z,0.0
2022-12-27T23:46:45.571Z,0.0
2022-12-27T23:49:16.378Z,0.0
2022-12-27T23:51:47.139Z,0.0
2022-12-27T23:54:17.935Z,0.0
2022-12-27T23:56:48.732Z,0.0
2022-12-27T23:59:29.488Z,0.0
